createdAt,value
2023-03-26T00:01:13.984Z,13.53
2023-03-26T00:03:40.903Z,12.27
2023-03-26T00:06:17.138Z,11.70
2023-03-26T00:08:46.934Z,15.50
2023-03-26T00:11:15.638Z,11.03
2023-03-26T00:13:43.945Z,13.47
2023-03-26T00:16:13.715Z,17.37
2023-03-26T00:18:43.987Z,11.50
2023-03-26T00:21:16.100Z,11.93
2023-03-26T00:23:43.297Z,12.40
2023-03-26T00:26:10.624Z,12.70
2023-03-26T00:28:40.387Z,11.80
2023-03-26T00:31:09.275Z,9.93
2023-03-26T00:33:40.643Z,14.63
2023-03-26T00:36:16.837Z,9.73
2023-03-26T00:38:44.610Z,13.90
2023-03-26T00:41:23.036Z,12.13
2023-03-26T00:43:57.080Z,8.23
2023-03-26T00:46:28.646Z,8.07
2023-03-26T00:48:58.793Z,11.43
2023-03-26T00:51:26.160Z,11.50
2023-03-26T00:53:53.017Z,13.13
2023-03-26T00:56:19.796Z,12.73
2023-03-26T00:58:47.549Z,12.57
2023-03-26T01:01:16.801Z,9.00
2023-03-26T01:03:57.079Z,13.30
2023-03-26T01:06:36.071Z,12.33
2023-03-26T01:09:10.750Z,14.63
2023-03-26T01:11:37.341Z,12.87
2023-03-26T01:14:10.349Z,15.13
2023-03-26T01:16:41.605Z,12.70
2023-03-26T01:19:38.601Z,13.67
2023-03-26T01:22:13.539Z,15.47
2023-03-26T01:24:40.914Z,13.50
2023-03-26T01:27:32.135Z,15.03
2023-03-26T01:30:07.841Z,12.77
2023-03-26T01:32:48.898Z,15.13
2023-03-26T01:35:27.948Z,15.80
2023-03-26T01:38:23.423Z,11.53
2023-03-26T01:41:11.675Z,13.63
2023-03-26T01:43:44.153Z,12.70
2023-03-26T01:46:11.748Z,12.20
2023-03-26T01:48:41.288Z,14.53
2023-03-26T01:51:08.607Z,16.67
2023-03-26T01:53:38.088Z,18.10
2023-03-26T01:56:13.745Z,12.90
2023-03-26T01:58:55.568Z,11.47
2023-03-26T02:01:30.090Z,12.73
2023-03-26T02:04:05.593Z,14.80
2023-03-26T02:06:43.509Z,8.50
2023-03-26T02:09:14.845Z,9.60
2023-03-26T02:11:41.496Z,10.73
2023-03-26T02:14:08.996Z,10.03
2023-03-26T02:16:35.600Z,10.70
2023-03-26T02:19:02.281Z,11.77
2023-03-26T02:21:28.822Z,13.17
2023-03-26T02:24:03.596Z,13.40
2023-03-26T02:26:32.421Z,11.57
2023-03-26T02:28:59.687Z,9.87
2023-03-26T02:31:26.468Z,12.13
2023-03-26T02:33:55.621Z,10.80
2023-03-26T02:36:27.590Z,9.13
2023-03-26T02:38:58.380Z,11.60
2023-03-26T02:41:24.890Z,14.40
2023-03-26T02:43:51.652Z,7.57
2023-03-26T02:46:18.227Z,10.27
2023-03-26T02:48:44.709Z,9.80
2023-03-26T02:51:11.154Z,11.17
2023-03-26T02:53:39.468Z,10.33
2023-03-26T02:56:06.641Z,12.23
2023-03-26T02:58:33.422Z,11.53
2023-03-26T03:01:03.145Z,12.27
2023-03-26T03:03:29.998Z,10.33
2023-03-26T03:05:57.324Z,10.07
2023-03-26T03:08:26.433Z,7.97
2023-03-26T03:10:57.988Z,9.63
2023-03-26T03:13:24.467Z,9.63
2023-03-26T03:15:51.159Z,7.77
2023-03-26T03:18:17.617Z,8.10
2023-03-26T03:20:44.707Z,5.50
2023-03-26T03:23:11.264Z,10.17
2023-03-26T03:25:38.372Z,8.27
2023-03-26T03:28:05.024Z,5.07
2023-03-26T03:30:31.638Z,6.60
2023-03-26T03:32:58.501Z,4.90
2023-03-26T03:35:25.917Z,5.37
2023-03-26T03:37:52.378Z,3.33
2023-03-26T03:40:19.720Z,4.80
2023-03-26T03:42:47.214Z,5.27
2023-03-26T03:45:14.060Z,4.10
2023-03-26T03:47:40.876Z,3.00
2023-03-26T03:50:08.218Z,5.37
2023-03-26T03:52:34.681Z,6.87
2023-03-26T03:55:01.154Z,6.23
2023-03-26T03:57:28.592Z,6.93
2023-03-26T03:59:58.204Z,9.37
2023-03-26T04:02:34.637Z,7.07
2023-03-26T04:05:02.445Z,6.80
2023-03-26T04:07:33.310Z,7.30
2023-03-26T04:10:00.425Z,7.00
2023-03-26T04:12:28.324Z,5.67
2023-03-26T04:14:55.707Z,7.67
2023-03-26T04:17:22.764Z,5.87
2023-03-26T04:19:50.540Z,5.20
2023-03-26T04:22:18.412Z,7.30
2023-03-26T04:24:45.545Z,7.47
2023-03-26T04:27:17.911Z,7.63
2023-03-26T04:29:49.629Z,7.87
2023-03-26T04:32:29.900Z,9.70
2023-03-26T04:35:00.353Z,12.37
2023-03-26T04:37:40.081Z,12.20
2023-03-26T04:40:19.516Z,12.10
2023-03-26T04:42:46.526Z,11.83
2023-03-26T04:45:14.792Z,14.40
2023-03-26T04:47:41.671Z,12.50
2023-03-26T04:50:10.117Z,15.73
2023-03-26T04:52:37.570Z,15.70
2023-03-26T04:55:07.551Z,13.50
2023-03-26T04:57:39.805Z,17.07
2023-03-26T05:00:15.320Z,13.00
2023-03-26T05:02:42.892Z,20.77
2023-03-26T05:05:10.191Z,12.37
2023-03-26T05:07:36.930Z,19.43
2023-03-26T05:10:04.560Z,9.67
2023-03-26T05:12:31.157Z,13.13
2023-03-26T05:14:57.616Z,15.03
2023-03-26T05:17:24.782Z,9.40
2023-03-26T05:19:52.079Z,14.23
2023-03-26T05:22:19.110Z,14.37
2023-03-26T05:24:45.566Z,21.17
2023-03-26T05:27:17.047Z,16.77
2023-03-26T05:29:43.694Z,16.50
2023-03-26T05:32:10.967Z,14.53
2023-03-26T05:34:39.228Z,16.37
2023-03-26T05:37:06.906Z,13.33
2023-03-26T05:39:33.649Z,16.20
2023-03-26T05:42:00.117Z,21.77
2023-03-26T05:44:26.799Z,14.03
2023-03-26T05:46:53.263Z,21.37
2023-03-26T05:49:19.721Z,12.40
2023-03-26T05:51:46.148Z,14.27
2023-03-26T05:54:12.606Z,14.60
2023-03-26T05:56:39.249Z,18.33
2023-03-26T05:59:06.764Z,19.40
2023-03-26T06:01:33.263Z,14.47
2023-03-26T06:03:59.838Z,19.93
2023-03-26T06:06:26.464Z,16.90
2023-03-26T06:09:01.813Z,15.80
2023-03-26T06:11:29.785Z,14.93
2023-03-26T06:13:56.355Z,17.30
2023-03-26T06:16:27.242Z,19.97
2023-03-26T06:18:56.550Z,12.30
2023-03-26T06:21:27.168Z,17.93
2023-03-26T06:23:54.059Z,21.17
2023-03-26T06:26:20.812Z,19.43
2023-03-26T06:28:47.744Z,17.63
2023-03-26T06:31:14.266Z,13.37
2023-03-26T06:33:40.784Z,15.27
2023-03-26T06:36:07.604Z,16.97
2023-03-26T06:38:34.226Z,16.73
2023-03-26T06:41:05.475Z,14.03
2023-03-26T06:43:33.817Z,20.23
2023-03-26T06:46:04.351Z,15.50
2023-03-26T06:48:31.319Z,18.93
2023-03-26T06:50:58.129Z,13.10
2023-03-26T06:53:24.649Z,19.03
2023-03-26T06:55:53.008Z,13.47
2023-03-26T06:58:19.548Z,13.63
2023-03-26T07:00:46.795Z,20.73
2023-03-26T07:03:13.324Z,21.67
2023-03-26T07:05:42.952Z,18.43
2023-03-26T07:08:09.396Z,19.77
2023-03-26T07:10:35.846Z,15.67
2023-03-26T07:13:02.323Z,15.97
2023-03-26T07:15:29.072Z,20.43
2023-03-26T07:17:56.396Z,15.47
2023-03-26T07:20:23.652Z,14.63
2023-03-26T07:22:50.600Z,17.83
2023-03-26T07:25:18.262Z,17.80
2023-03-26T07:28:24.319Z,15.13
2023-03-26T07:31:21.495Z,22.07
2023-03-26T07:34:12.051Z,18.57
2023-03-26T07:37:05.619Z,15.13
2023-03-26T07:39:44.221Z,16.07
2023-03-26T07:42:34.545Z,17.67
2023-03-26T07:45:24.774Z,17.83
2023-03-26T07:47:53.551Z,14.13
2023-03-26T07:50:23.467Z,14.20
2023-03-26T07:52:50.302Z,18.93
2023-03-26T07:55:17.342Z,13.73
2023-03-26T07:57:49.849Z,13.67
2023-03-26T08:00:22.802Z,14.90
2023-03-26T08:04:24.029Z,16.00
2023-03-26T08:07:01.133Z,16.93
2023-03-26T08:09:55.826Z,16.67
2023-03-26T08:12:36.588Z,12.40
2023-03-26T08:15:17.890Z,19.90
2023-03-26T08:18:00.330Z,18.57
2023-03-26T08:20:53.930Z,14.63
2023-03-26T08:23:30.861Z,14.30
2023-03-26T08:26:02.642Z,12.87
2023-03-26T08:28:38.550Z,15.47
2023-03-26T08:31:05.987Z,16.37
2023-03-26T08:33:36.020Z,14.50
2023-03-26T08:36:03.914Z,15.50
2023-03-26T08:38:30.405Z,15.53
2023-03-26T08:41:12.132Z,16.30
2023-03-26T08:43:57.521Z,12.97
2023-03-26T08:46:57.991Z,13.53
2023-03-26T08:49:30.603Z,11.87
2023-03-26T08:52:17.274Z,13.60
2023-03-26T08:54:57.282Z,12.53
2023-03-26T08:57:57.481Z,12.90
2023-03-26T09:00:41.907Z,15.73
2023-03-26T09:03:43.664Z,16.03
2023-03-26T09:06:42.700Z,15.47
2023-03-26T09:09:18.621Z,11.37
2023-03-26T09:12:44.570Z,17.33
2023-03-26T09:15:36.220Z,15.00
2023-03-26T09:18:06.155Z,13.70
2023-03-26T09:21:10.627Z,14.23
2023-03-26T09:24:14.544Z,15.93
2023-03-26T09:26:41.015Z,15.40
2023-03-26T09:29:19.619Z,11.17
2023-03-26T09:31:58.432Z,14.20
2023-03-26T09:34:47.421Z,14.00
2023-03-26T09:37:57.297Z,11.47
2023-03-26T09:40:53.307Z,11.93
2023-03-26T09:43:42.374Z,13.83
2023-03-26T09:46:40.533Z,14.40
2023-03-26T09:49:13.893Z,9.13
2023-03-26T09:51:55.547Z,12.20
2023-03-26T09:54:37.216Z,11.53
2023-03-26T09:57:09.077Z,12.00
2023-03-26T09:59:38.525Z,11.70
2023-03-26T10:02:45.447Z,13.47
2023-03-26T10:05:20.194Z,14.40
2023-03-26T10:07:46.608Z,12.53
2023-03-26T10:10:37.938Z,14.37
2023-03-26T10:13:30.990Z,14.97
2023-03-26T10:16:02.678Z,12.17
2023-03-26T10:18:48.890Z,9.40
2023-03-26T10:21:37.357Z,10.70
2023-03-26T10:24:10.187Z,11.00
2023-03-26T10:27:09.174Z,9.93
2023-03-26T10:29:43.126Z,10.53
2023-03-26T10:32:21.979Z,12.43
2023-03-26T10:35:20.561Z,13.53
2023-03-26T10:38:14.121Z,15.27
2023-03-26T10:40:43.762Z,14.00
2023-03-26T10:43:57.676Z,15.00
2023-03-26T10:46:50.674Z,12.03
2023-03-26T10:49:27.221Z,13.50
2023-03-26T10:51:59.771Z,13.57
2023-03-26T10:54:44.597Z,12.07
2023-03-26T10:57:20.906Z,12.60
2023-03-26T10:59:47.393Z,9.67
2023-03-26T11:02:30.721Z,11.33
2023-03-26T11:05:00.665Z,12.20
2023-03-26T11:07:39.299Z,7.90
2023-03-26T11:10:26.181Z,13.00
2023-03-26T11:13:14.652Z,15.77
2023-03-26T11:15:58.971Z,13.63
2023-03-26T11:18:36.636Z,14.27
2023-03-26T11:21:37.889Z,13.63
2023-03-26T11:24:26.097Z,8.87
2023-03-26T11:27:26.191Z,11.43
2023-03-26T11:29:54.085Z,11.20
2023-03-26T11:32:22.357Z,9.80
2023-03-26T11:34:55.113Z,13.07
2023-03-26T11:37:34.147Z,9.73
2023-03-26T11:40:06.373Z,10.93
2023-03-26T11:42:32.975Z,12.13
2023-03-26T11:45:04.312Z,12.20
2023-03-26T11:47:36.128Z,9.67
2023-03-26T11:50:03.767Z,12.33
2023-03-26T11:52:30.506Z,9.33
2023-03-26T11:54:58.515Z,8.93
2023-03-26T11:57:33.324Z,11.23
2023-03-26T12:00:19.451Z,9.97
2023-03-26T12:02:47.619Z,13.07
2023-03-26T12:05:19.316Z,10.20
2023-03-26T12:07:47.480Z,10.87
2023-03-26T12:10:38.287Z,11.27
2023-03-26T12:13:35.483Z,10.50
2023-03-26T12:16:12.901Z,13.27
2023-03-26T12:18:41.180Z,10.43
2023-03-26T12:21:12.683Z,8.07
2023-03-26T12:23:56.151Z,10.73
2023-03-26T12:26:41.256Z,10.40
2023-03-26T12:29:13.489Z,10.90
2023-03-26T12:31:55.464Z,9.80
2023-03-26T12:34:24.078Z,9.80
2023-03-26T12:37:00.113Z,14.47
2023-03-26T12:40:09.177Z,10.00
2023-03-26T12:44:50.756Z,11.67
2023-03-26T12:45:15.700Z,12.03
2023-03-26T12:47:57.244Z,9.83
2023-03-26T12:50:54.888Z,14.13
2023-03-26T12:53:45.208Z,13.07
2023-03-26T12:56:38.583Z,10.60
2023-03-26T12:59:19.951Z,9.70
2023-03-26T13:01:46.425Z,10.63
2023-03-26T13:04:34.177Z,12.10
2023-03-26T13:07:15.338Z,11.57
2023-03-26T13:09:44.606Z,11.43
2023-03-26T13:12:46.317Z,10.90
2023-03-26T13:15:33.002Z,12.10
2023-03-26T13:17:59.515Z,9.63
2023-03-26T13:20:34.227Z,12.87
2023-03-26T13:23:42.678Z,8.57
2023-03-26T13:26:30.911Z,10.17
2023-03-26T13:29:18.580Z,10.73
2023-03-26T13:31:57.758Z,13.03
2023-03-26T13:34:42.364Z,11.90
2023-03-26T13:37:17.037Z,10.87
2023-03-26T13:40:05.001Z,10.13
2023-03-26T13:42:44.359Z,11.17
2023-03-26T13:45:43.185Z,8.70
2023-03-26T13:48:17.569Z,11.77
2023-03-26T13:50:52.323Z,6.93
2023-03-26T13:53:27.290Z,11.47
2023-03-26T13:55:57.712Z,8.10
2023-03-26T13:58:43.380Z,7.90
2023-03-26T14:01:19.410Z,8.40
2023-03-26T14:03:48.996Z,6.50
2023-03-26T14:06:42.272Z,9.83
2023-03-26T14:09:15.779Z,8.10
2023-03-26T14:11:57.905Z,10.60
2023-03-26T14:14:47.284Z,10.37
2023-03-26T14:17:20.750Z,11.40
2023-03-26T14:20:08.668Z,7.37
2023-03-26T14:22:57.180Z,7.93
2023-03-26T14:25:57.704Z,9.20
2023-03-26T14:29:12.663Z,10.13
2023-03-26T14:32:01.987Z,8.37
2023-03-26T14:34:56.657Z,7.10
2023-03-26T14:37:38.379Z,8.73
2023-03-26T14:40:16.835Z,8.60
2023-03-26T14:42:54.455Z,10.87
2023-03-26T14:45:47.603Z,8.53
2023-03-26T14:48:38.966Z,8.20
2023-03-26T14:51:36.826Z,9.73
2023-03-26T14:54:12.155Z,9.70
2023-03-26T14:57:03.000Z,8.17
2023-03-26T14:59:47.626Z,7.17
2023-03-26T15:02:41.851Z,7.30
2023-03-26T15:05:39.220Z,6.67
2023-03-26T15:08:43.092Z,7.00
2023-03-26T15:11:39.688Z,7.70
2023-03-26T15:14:28.025Z,5.67
2023-03-26T15:17:25.988Z,7.60
2023-03-26T15:20:05.513Z,4.77
2023-03-26T15:22:51.130Z,7.80
2023-03-26T15:25:38.856Z,4.97
2023-03-26T15:28:36.263Z,6.47
2023-03-26T15:31:10.896Z,8.07
2023-03-26T15:34:05.043Z,5.57
2023-03-26T15:40:07.899Z,5.97
2023-03-26T15:42:37.414Z,6.90
2023-03-26T15:45:35.502Z,7.40
2023-03-26T15:48:11.967Z,7.33
2023-03-26T15:51:01.632Z,5.20
2023-03-26T15:53:43.384Z,5.50
2023-03-26T15:56:18.537Z,6.57
2023-03-26T15:59:13.311Z,4.13
2023-03-26T16:02:04.506Z,4.40
2023-03-26T16:05:05.079Z,5.60
2023-03-26T16:07:47.423Z,4.60
2023-03-26T16:10:28.930Z,5.70
2023-03-26T16:13:14.243Z,6.50
2023-03-26T16:15:41.141Z,7.03
2023-03-26T16:18:12.019Z,5.00
2023-03-26T16:20:56.236Z,6.17
2023-03-26T16:23:55.160Z,6.33
2023-03-26T16:26:48.257Z,4.77
2023-03-26T16:29:16.164Z,4.27
2023-03-26T16:32:07.877Z,4.50
2023-03-26T16:34:50.702Z,5.17
2023-03-26T16:37:40.844Z,5.50
2023-03-26T16:40:16.743Z,2.83
2023-03-26T16:43:20.967Z,5.50
2023-03-26T16:46:08.454Z,4.10
2023-03-26T16:49:03.247Z,2.67
2023-03-26T16:51:54.376Z,2.97
2023-03-26T16:54:46.202Z,3.67
2023-03-26T16:57:27.257Z,6.20
2023-03-26T17:00:41.392Z,3.67
2023-03-26T17:03:47.764Z,3.37
2023-03-26T17:06:25.516Z,4.10
2023-03-26T17:09:08.807Z,5.00
2023-03-26T17:11:52.025Z,3.97
2023-03-26T17:14:18.691Z,4.20
2023-03-26T17:16:51.378Z,2.53
2023-03-26T17:19:31.035Z,4.20
2023-03-26T17:22:24.036Z,7.17
2023-03-26T17:24:59.451Z,6.67
2023-03-26T17:27:34.011Z,4.60
2023-03-26T17:30:11.503Z,5.10
2023-03-26T17:33:00.022Z,5.70
2023-03-26T17:35:45.554Z,3.60
2023-03-26T17:38:18.101Z,5.07
2023-03-26T17:40:46.508Z,3.13
2023-03-26T17:43:40.424Z,4.33
2023-03-26T17:46:21.002Z,4.00
2023-03-26T17:48:53.044Z,4.30
2023-03-26T17:51:40.226Z,3.70
2023-03-26T17:54:28.543Z,6.10
2023-03-26T17:56:56.472Z,4.93
2023-03-26T17:59:25.552Z,5.03
2023-03-26T18:01:56.200Z,3.77
2023-03-26T18:04:45.153Z,3.30
2023-03-26T18:07:41.897Z,3.33
2023-03-26T18:10:32.935Z,5.30
2023-03-26T18:13:09.682Z,4.67
2023-03-26T18:15:45.958Z,4.73
2023-03-26T18:18:36.860Z,1.80
2023-03-26T18:21:07.141Z,4.67
2023-03-26T18:23:39.956Z,3.40
2023-03-26T18:26:19.539Z,3.27
2023-03-26T18:28:53.099Z,4.17
2023-03-26T18:31:24.486Z,3.63
2023-03-26T18:33:55.988Z,3.80
2023-03-26T18:36:26.295Z,4.63
2023-03-26T18:38:58.238Z,3.90
2023-03-26T18:41:31.586Z,3.63
2023-03-26T18:44:02.624Z,5.00
2023-03-26T18:46:29.253Z,3.20
2023-03-26T18:48:56.923Z,2.10
2023-03-26T18:51:26.000Z,2.80
2023-03-26T18:53:56.109Z,2.23
2023-03-26T18:56:36.739Z,4.17
2023-03-26T18:59:19.264Z,3.97
2023-03-26T19:01:48.711Z,1.70
2023-03-26T19:04:15.669Z,3.03
2023-03-26T19:06:42.889Z,2.13
2023-03-26T19:09:30.432Z,4.87
2023-03-26T19:12:08.825Z,3.30
2023-03-26T19:14:51.592Z,2.93
2023-03-26T19:17:18.328Z,2.37
2023-03-26T19:19:45.398Z,5.33
2023-03-26T19:22:12.158Z,4.27
2023-03-26T19:24:40.691Z,2.90
2023-03-26T19:27:07.579Z,4.20
2023-03-26T19:29:35.670Z,3.13
2023-03-26T19:32:05.631Z,2.87
2023-03-26T19:34:35.199Z,6.50
2023-03-26T19:37:19.882Z,4.67
2023-03-26T19:39:51.546Z,2.10
2023-03-26T19:42:43.389Z,3.13
2023-03-26T19:45:25.922Z,4.50
2023-03-26T19:48:03.574Z,5.93
2023-03-26T19:50:42.572Z,3.17
2023-03-26T19:53:22.564Z,6.03
2023-03-26T19:55:58.837Z,4.40
2023-03-26T19:58:28.686Z,4.47
2023-03-26T20:00:56.371Z,4.57
2023-03-26T20:03:27.480Z,4.90
2023-03-26T20:05:54.174Z,3.67
2023-03-26T20:08:26.996Z,5.63
2023-03-26T20:10:55.689Z,6.30
2023-03-26T20:13:22.646Z,3.73
2023-03-26T20:16:05.586Z,5.17
2023-03-26T20:18:34.142Z,6.03
2023-03-26T20:21:00.865Z,3.30
2023-03-26T20:23:29.104Z,4.83
2023-03-26T20:25:56.384Z,5.77
2023-03-26T20:28:24.610Z,5.87
2023-03-26T20:30:54.591Z,4.67
2023-03-26T20:33:27.964Z,5.50
2023-03-26T20:35:55.807Z,5.13
2023-03-26T20:38:36.691Z,5.33
2023-03-26T20:41:06.362Z,5.60
2023-03-26T20:43:33.443Z,4.40
2023-03-26T20:46:00.777Z,4.23
2023-03-26T20:48:27.266Z,5.40
2023-03-26T20:50:54.122Z,4.23
2023-03-26T20:53:20.751Z,6.80
2023-03-26T20:55:47.974Z,3.30
2023-03-26T20:58:17.938Z,7.83
2023-03-26T21:01:00.703Z,5.93
2023-03-26T21:03:27.414Z,3.00
2023-03-26T21:05:53.923Z,5.57
2023-03-26T21:08:21.931Z,5.70
2023-03-26T21:10:48.882Z,5.20
2023-03-26T21:13:39.552Z,3.50
2023-03-26T21:16:06.575Z,3.10
2023-03-26T21:18:33.485Z,5.53
2023-03-26T21:21:21.579Z,7.43
2023-03-26T21:23:59.233Z,5.93
2023-03-26T21:26:50.766Z,6.40
2023-03-26T21:29:17.914Z,7.37
2023-03-26T21:31:45.138Z,3.43
2023-03-26T21:34:13.347Z,4.30
2023-03-26T21:36:40.374Z,5.13
2023-03-26T21:39:07.345Z,7.50
2023-03-26T21:42:05.354Z,3.70
2023-03-26T21:44:33.054Z,7.17
2023-03-26T21:47:00.119Z,4.37
2023-03-26T21:49:33.163Z,3.97
2023-03-26T21:52:00.508Z,5.20
2023-03-26T21:54:29.383Z,4.53
2023-03-26T21:57:23.940Z,4.10
2023-03-26T22:00:15.531Z,5.60
2023-03-26T22:03:21.623Z,6.97
2023-03-26T22:05:58.213Z,2.47
2023-03-26T22:08:31.486Z,4.40
2023-03-26T22:11:01.698Z,4.67
2023-03-26T22:13:28.381Z,6.03
2023-03-26T22:15:54.935Z,5.80
2023-03-26T22:18:21.751Z,5.60
2023-03-26T22:20:48.861Z,6.77
2023-03-26T22:23:16.982Z,4.70
2023-03-26T22:25:44.616Z,7.20
2023-03-26T22:28:11.555Z,4.67
2023-03-26T22:30:38.717Z,6.03
2023-03-26T22:33:06.432Z,6.73
2023-03-26T22:35:33.113Z,3.30
2023-03-26T22:38:00.470Z,2.80
2023-03-26T22:40:27.747Z,5.50
2023-03-26T22:42:54.231Z,3.53
2023-03-26T22:45:20.684Z,6.60
2023-03-26T22:47:47.254Z,6.73
2023-03-26T22:50:14.777Z,3.80
2023-03-26T22:52:41.580Z,4.67
2023-03-26T22:55:08.541Z,5.20
2023-03-26T22:57:35.036Z,4.13
2023-03-26T23:00:14.882Z,5.67
2023-03-26T23:02:42.279Z,5.97
2023-03-26T23:05:09.286Z,9.57
2023-03-26T23:07:35.827Z,4.70
2023-03-26T23:10:02.285Z,5.27
2023-03-26T23:12:28.736Z,4.73
2023-03-26T23:14:55.359Z,6.30
2023-03-26T23:17:22.369Z,4.43
2023-03-26T23:19:49.420Z,4.07
2023-03-26T23:22:16.726Z,5.17
2023-03-26T23:24:43.196Z,5.10
2023-03-26T23:27:10.788Z,6.03
2023-03-26T23:29:37.354Z,4.97
2023-03-26T23:32:03.989Z,6.40
2023-03-26T23:34:51.655Z,5.07
2023-03-26T23:37:23.191Z,3.50
2023-03-26T23:39:52.876Z,4.30
2023-03-26T23:42:29.166Z,4.23
2023-03-26T23:44:57.170Z,4.70
2023-03-26T23:47:24.160Z,3.87
2023-03-26T23:49:50.870Z,3.17
2023-03-26T23:52:17.435Z,5.63
2023-03-26T23:54:45.593Z,6.30
2023-03-26T23:57:12.231Z,3.30
2023-03-26T23:59:41.432Z,7.00
